Time;durP1;ratioP1;P1;durP2;ratioP2;P2;SDS_P1;SDS_P2;PMS_P1;PMS_P2;Temp;Humidity;BMP_temperature;BMP_pressure;BME280_temperature;BME280_humidity;BME280_pressure;Samples;Min_cycle;Max_cycle;Signal;HPM_P1;HPM_P2
2022/09/22 00:01:47;;;;;;;9.43;5.10;;;;;;;;;;5030429;28;20037;-63
2022/09/22 00:04:13;;;;;;;17.25;7.05;;;;;;;;;;5029891;28;20103;-63
2022/09/22 00:06:46;;;;;;;18.20;8.45;;;;;;;;;;5030437;28;20021;-63
2022/09/22 00:09:13;;;;;;;14.68;5.95;;;;;;;;;;5029258;28;20112;-63
2022/09/22 00:11:42;;;;;;;14.18;5.63;;;;;;;;;;5032400;28;20047;-63
2022/09/22 00:14:19;;;;;;;9.90;5.45;;;;;;;;;;5025962;28;20033;-63
2022/09/22 00:17:05;;;;;;;10.20;5.32;;;;;;;;;;5040994;28;20090;-63
2022/09/22 00:19:36;;;;;;;10.90;5.32;;;;;;;;;;5039109;28;20050;-63
2022/09/22 00:22:02;;;;;;;9.95;4.93;;;;;;;;;;5029811;28;20040;-63
2022/09/22 00:24:28;;;;;;;13.45;5.25;;;;;;;;;;5029305;28;20441;-63
2022/09/22 00:26:56;;;;;;;12.05;5.32;;;;;;;;;;5030404;28;20017;-63
2022/09/22 00:29:22;;;;;;;9.65;5.35;;;;;;;;;;5027988;28;20450;-63
2022/09/22 00:31:48;;;;;;;9.25;5.18;;;;;;;;;;5029927;28;20575;-63
2022/09/22 00:34:19;;;;;;;9.23;5.28;;;;;;;;;;5023330;28;20541;-63
2022/09/22 00:36:46;;;;;;;11.20;5.20;;;;;;;;;;5029763;28;20018;-63
2022/09/22 00:39:13;;;;;;;9.10;5.07;;;;;;;;;;5029891;28;20037;-63
2022/09/22 00:41:41;;;;;;;7.38;5.13;;;;;;;;;;5029672;28;20049;-63
2022/09/22 00:44:25;;;;;;;8.98;5.20;;;;;;;;;;5027936;28;20096;-63
2022/09/22 00:47:09;;;;;;;;;;;;;;;;;;5030258;28;20391;-63
2022/09/22 00:49:44;;;;;;;;;;;;;;;;;;5028811;28;19949;-63
2022/09/22 00:52:12;;;;;;;6.82;4.65;;;;;;;;;;5022094;28;19913;-63
2022/09/22 00:54:38;;;;;;;11.23;5.38;;;;;;;;;;5030070;28;20136;-63
2022/09/22 00:57:14;;;;;;;10.70;5.15;;;;;;;;;;5019793;28;20026;-63
2022/09/22 00:59:43;;;;;;;12.30;4.85;;;;;;;;;;5034138;28;20120;-63
2022/09/22 01:02:09;;;;;;;11.00;5.43;;;;;;;;;;5028094;28;20048;-63
2022/09/22 01:04:34;;;;;;;8.45;4.88;;;;;;;;;;5048142;28;20031;-63
2022/09/22 01:07:01;;;;;;;8.88;4.97;;;;;;;;;;5064169;28;20062;-63
2022/09/22 01:09:31;;;;;;;8.40;4.75;;;;;;;;;;5024668;28;20069;-63
2022/09/22 01:11:57;;;;;;;8.35;4.82;;;;;;;;;;5049566;28;20061;-63
2022/09/22 01:14:34;;;;;;;12.18;5.18;;;;;;;;;;5032556;28;20471;-63
2022/09/22 01:17:32;;;;;;;8.80;5.22;;;;;;;;;;5029239;28;20065;-63
2022/09/22 01:20:14;;;;;;;14.48;4.63;;;;;;;;;;5027164;28;20038;-63
2022/09/22 01:23:17;;;;;;;11.50;5.75;;;;;;;;;;5029218;28;20176;-63
2022/09/22 01:25:57;;;;;;;10.70;5.70;;;;;;;;;;5028330;28;20706;-63
2022/09/22 01:28:38;;;;;;;11.85;5.28;;;;;;;;;;5036879;28;20045;-63
2022/09/22 01:31:12;;;;;;;11.65;5.60;;;;;;;;;;5048366;28;20164;-63
2022/09/22 01:33:40;;;;;;;9.90;4.93;;;;;;;;;;5048608;28;20025;-63
2022/09/22 01:36:33;;;;;;;8.60;5.03;;;;;;;;;;5048705;28;20023;-63
2022/09/22 01:39:10;;;;;;;11.07;5.22;;;;;;;;;;5028427;28;20048;-63
2022/09/22 01:41:57;;;;;;;9.77;5.32;;;;;;;;;;5028422;28;20053;-63
2022/09/22 01:44:55;;;;;;;9.57;5.18;;;;;;;;;;5027909;28;20044;-63
2022/09/22 01:47:31;;;;;;;9.23;5.13;;;;;;;;;;5038430;28;20033;-63
2022/09/22 01:50:01;;;;;;;10.20;5.40;;;;;;;;;;5043268;28;20044;-63
2022/09/22 01:52:30;;;;;;;8.90;4.60;;;;;;;;;;5020130;28;20518;-63
2022/09/22 01:55:21;;;;;;;8.85;5.10;;;;;;;;;;5032321;28;20466;-63
2022/09/22 01:58:04;;;;;;;9.25;4.88;;;;;;;;;;5046032;28;20048;-63
2022/09/22 02:00:30;;;;;;;8.88;5.00;;;;;;;;;;5018849;28;20018;-63
2022/09/22 02:03:05;;;;;;;10.65;5.45;;;;;;;;;;5048760;28;20025;-63
2022/09/22 02:05:58;;;;;;;10.07;5.30;;;;;;;;;;5030449;28;20037;-63
2022/09/22 02:08:36;;;;;;;8.00;4.83;;;;;;;;;;5028117;28;20038;-63
2022/09/22 02:11:08;;;;;;;9.65;4.93;;;;;;;;;;5027360;28;20048;-63
2022/09/22 02:13:35;;;;;;;10.30;4.80;;;;;;;;;;5028115;28;20097;-63
2022/09/22 02:16:01;;;;;;;9.40;5.00;;;;;;;;;;5026542;28;20041;-63
2022/09/22 02:18:39;;;;;;;10.93;5.22;;;;;;;;;;5027630;28;20029;-63
2022/09/22 02:21:05;;;;;;;10.15;4.80;;;;;;;;;;5027818;28;20514;-63
2022/09/22 02:23:31;;;;;;;9.38;4.85;;;;;;;;;;5028117;28;20033;-63
2022/09/22 02:26:00;;;;;;;10.82;5.55;;;;;;;;;;5039380;28;20605;-63
2022/09/22 02:28:27;;;;;;;9.30;5.22;;;;;;;;;;5047774;28;20063;-63
2022/09/22 02:30:54;;;;;;;7.93;4.90;;;;;;;;;;5047686;28;20033;-63
2022/09/22 02:33:23;;;;;;;11.18;5.03;;;;;;;;;;5047588;28;20035;-63
2022/09/22 02:35:55;;;;;;;9.98;5.32;;;;;;;;;;5047319;28;20107;-63
2022/09/22 02:38:45;;;;;;;7.93;4.57;;;;;;;;;;5038803;28;20037;-63
2022/09/22 02:41:19;;;;;;;10.23;5.18;;;;;;;;;;5055534;28;20070;-63
2022/09/22 02:44:02;;;;;;;10.07;5.38;;;;;;;;;;5067527;28;20033;-63
2022/09/22 02:46:36;;;;;;;9.20;5.15;;;;;;;;;;5066954;28;20056;-63
2022/09/22 02:49:05;;;;;;;10.60;5.57;;;;;;;;;;5067329;28;20045;-63
2022/09/22 02:51:31;;;;;;;11.00;5.50;;;;;;;;;;5067117;28;20493;-63
2022/09/22 02:53:57;;;;;;;11.65;5.72;;;;;;;;;;5067634;28;20077;-63
2022/09/22 02:56:22;;;;;;;6.78;4.43;;;;;;;;;;5056251;28;20124;-63
2022/09/22 02:58:47;;;;;;;8.50;4.80;;;;;;;;;;5045214;28;20036;-63
2022/09/22 03:01:13;;;;;;;10.95;5.05;;;;;;;;;;5040679;28;20406;-63
2022/09/22 03:03:38;;;;;;;9.52;5.20;;;;;;;;;;5028007;28;20034;-63
2022/09/22 03:06:04;;;;;;;10.27;5.10;;;;;;;;;;5051685;28;20102;-63
2022/09/22 03:08:29;;;;;;;9.52;5.72;;;;;;;;;;5033026;28;20065;-63
2022/09/22 03:10:54;;;;;;;9.77;5.38;;;;;;;;;;5027364;28;20116;-63
2022/09/22 03:13:19;;;;;;;10.13;5.43;;;;;;;;;;5034203;28;20037;-63
2022/09/22 03:15:45;;;;;;;10.05;5.78;;;;;;;;;;5046656;28;20406;-63
2022/09/22 03:18:10;;;;;;;10.52;5.22;;;;;;;;;;5060152;28;20024;-63
2022/09/22 03:20:36;;;;;;;9.93;5.68;;;;;;;;;;5066565;28;20036;-63
2022/09/22 03:23:01;;;;;;;12.95;5.75;;;;;;;;;;5066532;28;20501;-63
2022/09/22 03:25:26;;;;;;;13.70;6.43;;;;;;;;;;5058171;28;20040;-63
2022/09/22 03:27:51;;;;;;;10.93;5.35;;;;;;;;;;5042986;28;20132;-63
2022/09/22 03:30:17;;;;;;;8.85;4.55;;;;;;;;;;5025859;28;20029;-63
2022/09/22 03:32:42;;;;;;;14.50;5.97;;;;;;;;;;5045480;28;20059;-63
2022/09/22 03:35:08;;;;;;;14.63;5.25;;;;;;;;;;5046377;28;20115;-63
2022/09/22 03:37:34;;;;;;;11.50;5.20;;;;;;;;;;5046613;28;20037;-63
2022/09/22 03:40:00;;;;;;;10.05;5.53;;;;;;;;;;5046860;28;20052;-63
2022/09/22 03:42:25;;;;;;;9.65;5.45;;;;;;;;;;5066879;28;20131;-63
2022/09/22 03:44:50;;;;;;;9.70;5.30;;;;;;;;;;5066692;28;20091;-63
2022/09/22 03:47:16;;;;;;;10.40;5.40;;;;;;;;;;5066042;28;20032;-63
2022/09/22 03:49:41;;;;;;;10.70;5.45;;;;;;;;;;5066134;28;20055;-63
2022/09/22 03:52:06;;;;;;;9.55;5.00;;;;;;;;;;5047122;28;20045;-63
2022/09/22 03:54:32;;;;;;;10.98;5.38;;;;;;;;;;5007139;28;20040;-63
2022/09/22 03:56:57;;;;;;;11.20;5.93;;;;;;;;;;5016317;28;20554;-63
2022/09/22 03:59:23;;;;;;;10.32;5.53;;;;;;;;;;5025952;28;20037;-63
2022/09/22 04:01:48;;;;;;;10.27;5.55;;;;;;;;;;5026505;28;20578;-63
2022/09/22 04:04:14;;;;;;;8.88;4.88;;;;;;;;;;5026323;28;20068;-63
2022/09/22 04:06:39;;;;;;;12.07;5.43;;;;;;;;;;5037284;28;20048;-63
2022/09/22 04:09:05;;;;;;;9.68;5.82;;;;;;;;;;5025929;28;20171;-63
2022/09/22 04:11:30;;;;;;;13.13;5.57;;;;;;;;;;5026469;28;20041;-63
2022/09/22 04:13:56;;;;;;;10.70;5.88;;;;;;;;;;5025411;28;20140;-63
2022/09/22 04:16:22;;;;;;;9.98;5.53;;;;;;;;;;5026229;28;20045;-63
2022/09/22 04:18:47;;;;;;;13.70;6.10;;;;;;;;;;5026283;28;20029;-63
2022/09/22 04:21:13;;;;;;;10.55;6.15;;;;;;;;;;5026475;28;20037;-63
2022/09/22 04:23:38;;;;;;;10.40;5.75;;;;;;;;;;5044633;28;20045;-63
2022/09/22 04:26:04;;;;;;;10.57;5.60;;;;;;;;;;5032689;28;20049;-63
2022/09/22 04:28:30;;;;;;;9.68;5.60;;;;;;;;;;5026662;28;20038;-63
2022/09/22 04:30:56;;;;;;;10.88;5.82;;;;;;;;;;5025729;28;20447;-63
2022/09/22 04:33:22;;;;;;;11.48;5.90;;;;;;;;;;5026613;28;20025;-63
2022/09/22 04:35:48;;;;;;;9.38;6.18;;;;;;;;;;5025790;28;20069;-63
2022/09/22 04:38:14;;;;;;;16.13;6.47;;;;;;;;;;5024744;28;20419;-63
2022/09/22 04:40:39;;;;;;;13.27;6.32;;;;;;;;;;5028757;28;20523;-63
2022/09/22 04:43:04;;;;;;;9.52;5.53;;;;;;;;;;5028320;28;20128;-63
2022/09/22 04:45:30;;;;;;;11.50;6.20;;;;;;;;;;5029745;28;20108;-63
2022/09/22 04:47:55;;;;;;;10.57;5.68;;;;;;;;;;5028830;28;20594;-63
2022/09/22 04:50:21;;;;;;;12.85;6.13;;;;;;;;;;5029114;28;20530;-63
2022/09/22 04:52:55;;;;;;;15.02;5.88;;;;;;;;;;5029549;28;20094;-63
2022/09/22 04:55:22;;;;;;;11.27;5.50;;;;;;;;;;5029561;28;20060;-63
2022/09/22 04:57:51;;;;;;;11.52;6.00;;;;;;;;;;5026523;28;20103;-63
2022/09/22 05:00:17;;;;;;;10.52;6.43;;;;;;;;;;5029722;28;20017;-63
2022/09/22 05:02:43;;;;;;;14.05;6.47;;;;;;;;;;5029416;28;20029;-63
2022/09/22 05:05:08;;;;;;;13.02;6.85;;;;;;;;;;5028760;28;20034;-64
2022/09/22 05:07:33;;;;;;;12.13;6.63;;;;;;;;;;5029325;28;20060;-63
2022/09/22 05:09:59;;;;;;;14.25;6.70;;;;;;;;;;5028975;28;20038;-64
2022/09/22 05:12:27;;;;;;;14.32;6.95;;;;;;;;;;5029518;28;20029;-63
2022/09/22 05:14:53;;;;;;;11.23;6.35;;;;;;;;;;5048629;28;20200;-63
2022/09/22 05:17:18;;;;;;;12.88;6.32;;;;;;;;;;5048578;28;20516;-63
2022/09/22 05:19:45;;;;;;;14.13;7.35;;;;;;;;;;5048749;28;20033;-63
2022/09/22 05:22:11;;;;;;;13.07;6.85;;;;;;;;;;5047677;28;20418;-63
2022/09/22 05:24:36;;;;;;;12.10;6.28;;;;;;;;;;5046756;28;20552;-63
2022/09/22 05:27:02;;;;;;;14.00;6.70;;;;;;;;;;5047886;28;20025;-63
2022/09/22 05:29:27;;;;;;;13.00;6.93;;;;;;;;;;5032059;28;20511;-63
2022/09/22 05:31:52;;;;;;;11.70;6.15;;;;;;;;;;5028129;28;20034;-63
2022/09/22 05:34:18;;;;;;;13.70;7.03;;;;;;;;;;5048726;28;20037;-63
2022/09/22 05:36:43;;;;;;;12.93;6.57;;;;;;;;;;5068605;28;20013;-63
2022/09/22 05:39:08;;;;;;;13.45;6.00;;;;;;;;;;5069012;28;20082;-63
2022/09/22 05:41:33;;;;;;;15.45;7.45;;;;;;;;;;5068291;28;20053;-63
2022/09/22 05:43:59;;;;;;;15.27;7.30;;;;;;;;;;5068239;28;20050;-63
2022/09/22 05:46:24;;;;;;;17.85;7.00;;;;;;;;;;5068556;28;20078;-64
2022/09/22 05:48:49;;;;;;;16.80;7.18;;;;;;;;;;5068133;28;20851;-63
2022/09/22 05:51:15;;;;;;;14.27;6.70;;;;;;;;;;5068801;28;20055;-63
2022/09/22 05:53:40;;;;;;;15.88;7.05;;;;;;;;;;5067983;28;20585;-63
2022/09/22 05:56:05;;;;;;;18.95;7.03;;;;;;;;;;5064851;28;20037;-63
2022/09/22 05:58:31;;;;;;;14.27;6.93;;;;;;;;;;5038827;28;20108;-63
2022/09/22 06:00:56;;;;;;;14.52;7.47;;;;;;;;;;5027082;28;20119;-63
2022/09/22 06:03:22;;;;;;;15.65;7.50;;;;;;;;;;5028665;28;20021;-63
2022/09/22 06:05:48;;;;;;;12.82;6.75;;;;;;;;;;5046424;28;20041;-62
2022/09/22 06:08:13;;;;;;;11.57;6.35;;;;;;;;;;5042573;28;20033;-63
2022/09/22 06:10:39;;;;;;;14.98;7.03;;;;;;;;;;5036797;28;20033;-63
2022/09/22 06:13:06;;;;;;;14.82;6.72;;;;;;;;;;5045446;28;20036;-63
2022/09/22 06:15:33;;;;;;;15.20;7.00;;;;;;;;;;5042086;28;20018;-66
2022/09/22 06:17:59;;;;;;;16.40;6.20;;;;;;;;;;5053645;28;20079;-67
2022/09/22 06:20:24;;;;;;;11.13;6.50;;;;;;;;;;5028627;28;20034;-67
2022/09/22 06:22:49;;;;;;;11.90;6.60;;;;;;;;;;5027905;28;20029;-67
2022/09/22 06:25:15;;;;;;;16.83;6.43;;;;;;;;;;5033317;28;20131;-67
2022/09/22 06:27:41;;;;;;;18.85;7.03;;;;;;;;;;5045800;28;20027;-67
2022/09/22 06:30:09;;;;;;;16.77;7.72;;;;;;;;;;5031159;28;20504;-67
2022/09/22 06:32:38;;;;;;;13.05;7.40;;;;;;;;;;5044674;28;20082;-67
2022/09/22 06:35:06;;;;;;;21.15;7.78;;;;;;;;;;5046244;28;20116;-67
2022/09/22 06:37:32;;;;;;;18.35;8.02;;;;;;;;;;5047134;28;20044;-67
2022/09/22 06:39:57;;;;;;;16.48;8.00;;;;;;;;;;5046522;28;20099;-67
2022/09/22 06:42:23;;;;;;;16.98;7.85;;;;;;;;;;5047190;28;20083;-67
2022/09/22 06:44:48;;;;;;;16.42;8.20;;;;;;;;;;5043185;28;20047;-67
2022/09/22 06:47:14;;;;;;;18.23;7.93;;;;;;;;;;5044905;28;20617;-66
2022/09/22 06:49:41;;;;;;;16.17;8.40;;;;;;;;;;5043667;28;20132;-66
2022/09/22 06:52:11;;;;;;;15.82;7.90;;;;;;;;;;5044529;28;20053;-66
2022/09/22 06:54:39;;;;;;;16.98;8.05;;;;;;;;;;5043596;28;20017;-66
2022/09/22 06:57:04;;;;;;;14.88;8.02;;;;;;;;;;5037779;28;20549;-67
2022/09/22 06:59:30;;;;;;;13.60;7.38;;;;;;;;;;5045355;28;20114;-66
2022/09/22 07:01:55;;;;;;;20.95;8.23;;;;;;;;;;5043349;28;20044;-66
2022/09/22 07:04:22;;;;;;;13.55;8.07;;;;;;;;;;5046684;28;20043;-65
2022/09/22 07:06:49;;;;;;;15.32;7.18;;;;;;;;;;5041758;28;20044;-65
2022/09/22 07:09:14;;;;;;;18.60;8.02;;;;;;;;;;5046705;28;20110;-65
2022/09/22 07:11:39;;;;;;;13.90;7.65;;;;;;;;;;5043862;28;20518;-66
2022/09/22 07:14:05;;;;;;;13.65;7.03;;;;;;;;;;5041474;28;20044;-69
2022/09/22 07:16:30;;;;;;;20.20;8.13;;;;;;;;;;5028554;28;21240;-70
2022/09/22 07:18:59;;;;;;;18.33;8.48;;;;;;;;;;4977137;28;20045;-65
2022/09/22 07:21:29;;;;;;;17.05;8.45;;;;;;;;;;4977845;28;20498;-66
2022/09/22 07:23:56;;;;;;;16.73;7.35;;;;;;;;;;5003770;28;20087;-65
2022/09/22 07:26:29;;;;;;;16.90;7.57;;;;;;;;;;4985803;28;20124;-64
2022/09/22 07:28:58;;;;;;;12.57;6.60;;;;;;;;;;5007665;28;20060;-65
2022/09/22 07:31:25;;;;;;;15.52;7.43;;;;;;;;;;4988005;28;20080;-67
2022/09/22 07:33:52;;;;;;;14.18;6.70;;;;;;;;;;5002623;28;20033;-66
2022/09/22 07:36:20;;;;;;;15.73;7.38;;;;;;;;;;4989395;28;20025;-68
2022/09/22 07:38:50;;;;;;;13.95;6.57;;;;;;;;;;4999583;28;20072;-64
2022/09/22 07:41:18;;;;;;;13.43;6.10;;;;;;;;;;4993189;28;20056;-63
2022/09/22 07:43:44;;;;;;;16.63;6.07;;;;;;;;;;4984831;28;20625;-64
2022/09/22 07:46:11;;;;;;;16.05;7.13;;;;;;;;;;4990621;28;20120;-62
2022/09/22 07:48:40;;;;;;;15.82;6.13;;;;;;;;;;4989288;28;20025;-65
2022/09/22 07:51:11;;;;;;;14.40;6.47;;;;;;;;;;4983724;28;20506;-65
2022/09/22 07:53:38;;;;;;;11.90;5.65;;;;;;;;;;4985708;28;20082;-65
2022/09/22 07:56:12;;;;;;;14.32;5.53;;;;;;;;;;4983310;28;20037;-65
2022/09/22 07:58:40;;;;;;;14.43;5.57;;;;;;;;;;4968415;28;20124;-64
2022/09/22 08:01:09;;;;;;;10.38;5.10;;;;;;;;;;4966003;28;20446;-65
2022/09/22 08:03:38;;;;;;;9.93;5.20;;;;;;;;;;4967309;28;20586;-65
2022/09/22 08:06:10;;;;;;;12.02;4.82;;;;;;;;;;4968916;28;20115;-65
2022/09/22 08:08:54;;;;;;;10.95;5.32;;;;;;;;;;4967019;28;20593;-64
2022/09/22 08:11:24;;;;;;;10.20;5.03;;;;;;;;;;4968012;28;20044;-63
2022/09/22 08:13:52;;;;;;;9.57;4.53;;;;;;;;;;4970375;28;20860;-66
2022/09/22 08:16:18;;;;;;;7.90;4.13;;;;;;;;;;4972269;28;20021;-65
2022/09/22 08:18:44;;;;;;;9.93;4.63;;;;;;;;;;4971962;28;20042;-66
2022/09/22 08:21:10;;;;;;;10.88;3.40;;;;;;;;;;4972462;28;20556;-65
2022/09/22 08:23:36;;;;;;;8.45;3.85;;;;;;;;;;4971736;28;20033;-70
2022/09/22 08:26:07;;;;;;;11.38;3.88;;;;;;;;;;4982666;28;20029;-65
2022/09/22 08:28:33;;;;;;;12.48;4.38;;;;;;;;;;4992623;28;20135;-66
2022/09/22 08:31:00;;;;;;;7.68;4.00;;;;;;;;;;4990964;28;20041;-65
2022/09/22 08:33:25;;;;;;;8.07;4.32;;;;;;;;;;4992275;28;20037;-66
2022/09/22 08:36:02;;;;;;;11.82;4.10;;;;;;;;;;4989704;28;20064;-66
2022/09/22 08:38:29;;;;;;;6.15;3.60;;;;;;;;;;4993650;28;20041;-66
2022/09/22 08:41:14;;;;;;;5.25;3.22;;;;;;;;;;4988785;28;20115;-65
2022/09/22 08:43:58;;;;;;;5.35;3.13;;;;;;;;;;4992112;28;20032;-62
2022/09/22 08:46:36;;;;;;;5.85;3.03;;;;;;;;;;4990614;28;20538;-65
2022/09/22 08:52:03;;;;;;;9.13;3.58;;;;;;;;;;4989587;28;20044;-66
2022/09/22 08:54:30;;;;;;;6.57;3.10;;;;;;;;;;4988968;28;20323;-67
2022/09/22 08:57:26;;;;;;;6.65;4.00;;;;;;;;;;4987260;28;20418;-66
2022/09/22 09:00:06;;;;;;;8.13;3.50;;;;;;;;;;4990706;28;20080;-66
2022/09/22 09:03:15;;;;;;;6.07;3.40;;;;;;;;;;4991400;28;20625;-66
2022/09/22 09:05:49;;;;;;;5.47;3.40;;;;;;;;;;4990209;28;20060;-63
2022/09/22 09:08:27;;;;;;;7.47;3.60;;;;;;;;;;4992930;28;20870;-66
2022/09/22 09:10:57;;;;;;;13.43;4.22;;;;;;;;;;4988557;28;20056;-67
2022/09/22 09:13:50;;;;;;;6.65;3.60;;;;;;;;;;4990294;28;20036;-68
2022/09/22 09:16:37;;;;;;;6.00;3.57;;;;;;;;;;4990095;28;20047;-67
2022/09/22 09:19:15;;;;;;;8.57;3.50;;;;;;;;;;4967790;28;20609;-65
2022/09/22 09:21:47;;;;;;;7.72;3.20;;;;;;;;;;4967876;28;20057;-64
2022/09/22 09:24:19;;;;;;;6.97;3.80;;;;;;;;;;4969806;28;20037;-67
2022/09/22 09:26:45;;;;;;;7.43;3.88;;;;;;;;;;4969178;28;20033;-66
2022/09/22 09:29:22;;;;;;;5.57;3.13;;;;;;;;;;4971628;28;20043;-65
2022/09/22 09:31:52;;;;;;;7.72;3.20;;;;;;;;;;4968085;28;20612;-64
2022/09/22 09:34:22;;;;;;;7.60;3.38;;;;;;;;;;4984485;28;20017;-73
2022/09/22 09:36:51;;;;;;;5.78;3.03;;;;;;;;;;4982157;28;20536;-65
2022/09/22 09:39:38;;;;;;;4.68;3.10;;;;;;;;;;4975831;28;20450;-65
2022/09/22 09:42:27;;;;;;;6.72;3.20;;;;;;;;;;4965440;28;20144;-69
2022/09/22 09:44:54;;;;;;;10.98;3.38;;;;;;;;;;4967650;28;20434;-68
2022/09/22 09:47:57;;;;;;;6.57;3.95;;;;;;;;;;4966782;28;20044;-66
2022/09/22 09:50:28;;;;;;;8.85;3.50;;;;;;;;;;4967842;28;20112;-65
2022/09/22 09:52:54;;;;;;;6.50;3.40;;;;;;;;;;4967979;28;20043;-66
2022/09/22 09:55:25;;;;;;;5.45;3.47;;;;;;;;;;4967864;28;20095;-67
2022/09/22 09:58:04;;;;;;;6.32;3.08;;;;;;;;;;4969257;28;20037;-66
2022/09/22 10:00:30;;;;;;;6.90;3.28;;;;;;;;;;4969273;28;20041;-65
2022/09/22 10:03:02;;;;;;;4.47;2.88;;;;;;;;;;4969421;28;20103;-66
2022/09/22 10:05:28;;;;;;;6.60;2.83;;;;;;;;;;4965237;28;20037;-66
2022/09/22 10:08:00;;;;;;;6.47;3.20;;;;;;;;;;4968361;28;20025;-66
2022/09/22 10:10:34;;;;;;;5.80;3.13;;;;;;;;;;4967574;28;20025;-66
2022/09/22 10:13:02;;;;;;;6.97;3.00;;;;;;;;;;4971311;28;20046;-70
2022/09/22 10:15:29;;;;;;;5.68;3.13;;;;;;;;;;4967598;28;20037;-70
2022/09/22 10:17:55;;;;;;;5.35;2.70;;;;;;;;;;4966467;28;20067;-70
2022/09/22 10:20:21;;;;;;;6.75;2.60;;;;;;;;;;4968786;28;20606;-68
2022/09/22 10:22:48;;;;;;;3.97;2.60;;;;;;;;;;4970737;28;20027;-66
2022/09/22 10:25:21;;;;;;;7.82;2.45;;;;;;;;;;4964781;28;20048;-71
2022/09/22 10:28:08;;;;;;;5.22;2.67;;;;;;;;;;4948995;28;20041;-69
2022/09/22 10:30:38;;;;;;;5.00;1.90;;;;;;;;;;4952617;28;20040;-69
2022/09/22 10:33:17;;;;;;;7.15;1.70;;;;;;;;;;4989348;28;20042;-68
2022/09/22 10:35:52;;;;;;;3.58;2.20;;;;;;;;;;4979855;28;20041;-65
2022/09/22 10:38:25;;;;;;;3.63;2.25;;;;;;;;;;4955110;28;20090;-67
2022/09/22 10:41:12;;;;;;;3.75;1.98;;;;;;;;;;4987692;28;20053;-69
2022/09/22 10:43:52;;;;;;;5.20;2.20;;;;;;;;;;4986808;28;20043;-75
2022/09/22 10:46:42;;;;;;;3.25;2.05;;;;;;;;;;4985158;28;20411;-75
2022/09/22 10:49:31;;;;;;;3.92;2.17;;;;;;;;;;4986701;28;20045;-76
2022/09/22 10:52:08;;;;;;;6.18;2.13;;;;;;;;;;4985087;28;20045;-70
2022/09/22 10:54:51;;;;;;;3.88;2.20;;;;;;;;;;4986400;28;20127;-64
2022/09/22 10:57:24;;;;;;;4.32;1.67;;;;;;;;;;4987603;28;20685;-70
2022/09/22 11:00:19;;;;;;;6.13;1.93;;;;;;;;;;4978479;28;20033;-71
2022/09/22 11:03:17;;;;;;;4.00;2.00;;;;;;;;;;4968001;28;20037;-67
2022/09/22 11:12:18;;;;;;;3.30;1.75;;;;;;;;;;4966548;28;20044;-66
2022/09/22 11:15:02;;;;;;;3.92;1.77;;;;;;;;;;4968012;28;20121;-70
2022/09/22 11:17:40;;;;;;;8.63;2.17;;;;;;;;;;4974951;28;20045;-67
2022/09/22 11:20:31;;;;;;;2.47;1.60;;;;;;;;;;5008061;28;20139;-66
2022/09/22 11:23:13;;;;;;;2.55;1.73;;;;;;;;;;5003179;28;20814;-68
2022/09/22 11:25:41;;;;;;;4.22;2.00;;;;;;;;;;4997147;28;20622;-62
2022/09/22 11:28:24;;;;;;;4.53;1.70;;;;;;;;;;4985685;28;20521;-62
2022/09/22 11:30:51;;;;;;;5.53;1.65;;;;;;;;;;4982984;28;20620;-62
2022/09/22 11:33:26;;;;;;;3.58;1.83;;;;;;;;;;4997341;28;20604;-61
2022/09/22 11:36:16;;;;;;;4.65;1.90;;;;;;;;;;5006823;28;20086;-61
2022/09/22 11:39:02;;;;;;;8.88;2.83;;;;;;;;;;5007063;28;20058;-62
2022/09/22 11:42:03;;;;;;;5.25;2.33;;;;;;;;;;5007175;28;20113;-62
2022/09/22 11:44:50;;;;;;;5.35;2.33;;;;;;;;;;4971491;28;20041;-62
2022/09/22 11:47:31;;;;;;;9.65;3.40;;;;;;;;;;4961448;28;20044;-62
2022/09/22 11:50:19;;;;;;;7.90;3.60;;;;;;;;;;4963973;28;20034;-62
2022/09/22 11:52:56;;;;;;;6.10;2.85;;;;;;;;;;5032983;28;20070;-62
2022/09/22 11:55:43;;;;;;;7.30;3.20;;;;;;;;;;5031811;28;20022;-62
2022/09/22 11:58:18;;;;;;;9.73;3.38;;;;;;;;;;5049227;28;20045;-62
2022/09/22 12:00:53;;;;;;;7.32;3.15;;;;;;;;;;5051136;28;20616;-62
2022/09/22 12:03:25;;;;;;;9.05;3.45;;;;;;;;;;5038688;28;20690;-62
2022/09/22 12:05:55;;;;;;;6.85;3.42;;;;;;;;;;5051311;28;20075;-62
2022/09/22 12:08:24;;;;;;;6.55;3.40;;;;;;;;;;5034263;28;20071;-62
2022/09/22 12:10:51;;;;;;;7.90;3.05;;;;;;;;;;5054617;28;20042;-62
2022/09/22 12:13:21;;;;;;;8.80;3.60;;;;;;;;;;5038671;28;20025;-62
2022/09/22 12:16:05;;;;;;;7.90;3.05;;;;;;;;;;5032529;28;20021;-62
2022/09/22 12:18:39;;;;;;;11.27;4.13;;;;;;;;;;5029313;28;20029;-62
2022/09/22 12:21:44;;;;;;;7.57;3.42;;;;;;;;;;5031694;28;20777;-62
2022/09/22 12:24:11;;;;;;;8.35;3.28;;;;;;;;;;5051135;28;20040;-62
2022/09/22 12:26:39;;;;;;;11.40;3.50;;;;;;;;;;5051758;28;20041;-62
2022/09/22 12:29:23;;;;;;;8.68;3.25;;;;;;;;;;5050901;28;20060;-62
2022/09/22 12:31:50;;;;;;;;;;;;;;;;;;5035312;28;20469;-62
2022/09/22 12:34:19;;;;;;;7.95;3.20;;;;;;;;;;5064922;28;20369;-62
2022/09/22 12:36:46;;;;;;;6.95;2.63;;;;;;;;;;5032598;28;20026;-61
2022/09/22 12:39:20;;;;;;;6.22;2.85;;;;;;;;;;5052165;28;20099;-62
2022/09/22 12:41:56;;;;;;;9.02;3.45;;;;;;;;;;5033118;28;20049;-62
2022/09/22 12:44:29;;;;;;;6.60;3.03;;;;;;;;;;5032183;28;20071;-62
2022/09/22 12:47:05;;;;;;;7.57;3.00;;;;;;;;;;5033577;28;20029;-62
2022/09/22 12:49:31;;;;;;;5.88;2.65;;;;;;;;;;5047648;28;20075;-61
2022/09/22 12:51:56;;;;;;;7.35;2.25;;;;;;;;;;5035046;28;20036;-61
2022/09/22 12:54:21;;;;;;;6.40;2.70;;;;;;;;;;5052478;28;20040;-61
2022/09/22 12:56:58;;;;;;;5.85;2.55;;;;;;;;;;5032985;28;20049;-61
2022/09/22 12:59:35;;;;;;;11.25;3.10;;;;;;;;;;5044758;28;20142;-63
2022/09/22 13:02:13;;;;;;;7.13;2.75;;;;;;;;;;5048648;28;20937;-61
2022/09/22 13:04:39;;;;;;;8.15;2.92;;;;;;;;;;5048977;28;20060;-61
2022/09/22 13:07:30;;;;;;;6.43;3.03;;;;;;;;;;5047794;28;20423;-61
2022/09/22 13:10:23;;;;;;;6.50;3.17;;;;;;;;;;5048136;28;20083;-61
2022/09/22 13:13:09;;;;;;;7.53;3.17;;;;;;;;;;5048221;28;20020;-61
2022/09/22 13:15:44;;;;;;;10.23;2.75;;;;;;;;;;5047136;28;20017;-61
2022/09/22 13:18:32;;;;;;;7.80;3.17;;;;;;;;;;5054965;28;20032;-61
2022/09/22 13:21:17;;;;;;;5.82;2.80;;;;;;;;;;5068060;28;20040;-61
2022/09/22 13:24:01;;;;;;;7.82;3.88;;;;;;;;;;5068910;28;20101;-61
2022/09/22 13:26:38;;;;;;;4.90;2.30;;;;;;;;;;5030500;28;20113;-60
2022/09/22 13:29:19;;;;;;;5.13;2.22;;;;;;;;;;5028182;28;20040;-61
2022/09/22 13:31:47;;;;;;;4.65;2.20;;;;;;;;;;5028319;28;20047;-61
2022/09/22 13:34:28;;;;;;;4.28;2.13;;;;;;;;;;5020728;28;20049;-61
2022/09/22 13:36:59;;;;;;;4.13;2.00;;;;;;;;;;5028396;28;20104;-61
2022/09/22 13:39:30;;;;;;;5.22;2.60;;;;;;;;;;5029222;28;20025;-61
2022/09/22 13:42:06;;;;;;;4.80;2.40;;;;;;;;;;5028943;28;20537;-61
2022/09/22 13:44:36;;;;;;;10.75;3.90;;;;;;;;;;5027297;28;20041;-62
2022/09/22 13:47:05;;;;;;;6.70;3.40;;;;;;;;;;5028751;28;20033;-62
2022/09/22 13:49:39;;;;;;;5.97;3.05;;;;;;;;;;5035730;28;20052;-61
2022/09/22 13:52:11;;;;;;;5.93;3.22;;;;;;;;;;5043310;28;20126;-61
2022/09/22 13:54:38;;;;;;;7.25;3.00;;;;;;;;;;5031033;28;20053;-62
2022/09/22 13:57:14;;;;;;;7.13;3.33;;;;;;;;;;5038974;28;20030;-62
2022/09/22 13:59:40;;;;;;;6.25;3.30;;;;;;;;;;5029358;28;20041;-61
2022/09/22 14:02:09;;;;;;;7.32;3.60;;;;;;;;;;5029939;28;20041;-62
2022/09/22 14:04:34;;;;;;;7.55;3.30;;;;;;;;;;5029508;28;20037;-61
2022/09/22 14:07:06;;;;;;;7.75;3.40;;;;;;;;;;5027649;28;20088;-61
2022/09/22 14:09:34;;;;;;;9.43;3.97;;;;;;;;;;5029032;28;20025;-62
2022/09/22 14:12:00;;;;;;;9.07;3.58;;;;;;;;;;5034600;28;20024;-62
2022/09/22 14:14:26;;;;;;;7.55;3.80;;;;;;;;;;5031249;28;20040;-62
2022/09/22 14:16:59;;;;;;;8.43;4.07;;;;;;;;;;5029355;28;20049;-62
2022/09/22 14:19:28;;;;;;;;;;;;;;;;;;5027546;28;20043;-61
2022/09/22 14:21:59;;;;;;;7.45;3.67;;;;;;;;;;5025354;28;19921;-62
2022/09/22 14:24:26;;;;;;;8.38;3.38;;;;;;;;;;5028259;28;20108;-62
2022/09/22 14:27:01;;;;;;;7.07;3.53;;;;;;;;;;5028474;28;20030;-61
2022/09/22 14:29:36;;;;;;;7.95;3.28;;;;;;;;;;5028524;28;20033;-61
2022/09/22 14:32:04;;;;;;;7.57;3.33;;;;;;;;;;5027208;28;20051;-62
2022/09/22 14:34:31;;;;;;;9.82;3.78;;;;;;;;;;5027836;28;20041;-62
2022/09/22 14:36:58;;;;;;;5.60;2.88;;;;;;;;;;5026814;28;20033;-62
2022/09/22 14:39:32;;;;;;;6.55;2.38;;;;;;;;;;5028655;28;20080;-62
2022/09/22 14:42:14;;;;;;;7.07;3.00;;;;;;;;;;5027649;28;20156;-62
2022/09/22 14:44:42;;;;;;;5.88;2.80;;;;;;;;;;5025966;28;20045;-62
2022/09/22 14:47:28;;;;;;;5.20;2.53;;;;;;;;;;5025848;28;20595;-61
2022/09/22 14:50:36;;;;;;;5.88;3.15;;;;;;;;;;5027493;28;20571;-62
2022/09/22 14:53:22;;;;;;;4.15;2.10;;;;;;;;;;5027324;28;20471;-62
2022/09/22 14:55:52;;;;;;;3.25;1.80;;;;;;;;;;5027811;28;20057;-61
2022/09/22 14:58:21;;;;;;;4.10;2.30;;;;;;;;;;5008292;28;20172;-61
2022/09/22 15:04:11;;;;;;;3.78;2.20;;;;;;;;;;5025675;28;20031;-62
2022/09/22 15:06:40;;;;;;;3.75;1.90;;;;;;;;;;5027530;28;20157;-62
2022/09/22 15:09:11;;;;;;;2.97;1.50;;;;;;;;;;5026777;28;20036;-62
2022/09/22 15:11:50;;;;;;;2.53;1.80;;;;;;;;;;5024563;28;20471;-61
2022/09/22 15:14:30;;;;;;;3.00;1.67;;;;;;;;;;5024809;28;20052;-61
2022/09/22 15:18:11;;;;;;;2.22;1.77;;;;;;;;;;5038183;28;20148;-61
2022/09/22 15:19:40;;;;;;;4.35;2.83;;;;;;;;;;5035030;28;20044;-62